createdAt,value
2022-08-04T00:01:34.432Z,21.90
2022-08-04T00:04:04.959Z,21.90
2022-08-04T00:06:45.141Z,21.90
2022-08-04T00:09:18.220Z,21.80
2022-08-04T00:11:47.776Z,21.90
2022-08-04T00:14:17.151Z,21.80
2022-08-04T00:16:44.728Z,21.80
2022-08-04T00:19:14.229Z,21.80
2022-08-04T00:21:44.455Z,21.80
2022-08-04T00:24:11.606Z,21.80
2022-08-04T00:26:37.079Z,21.80
2022-08-04T00:29:01.704Z,21.80
2022-08-04T00:31:53.944Z,21.80
2022-08-04T00:34:13.682Z,21.70
2022-08-04T00:36:37.480Z,21.80
2022-08-04T00:39:01.934Z,21.80
2022-08-04T00:41:56.209Z,21.70
2022-08-04T00:44:39.405Z,21.70
2022-08-04T00:47:17.662Z,21.60
2022-08-04T00:50:06.894Z,21.60
2022-08-04T00:52:42.608Z,21.60
2022-08-04T00:55:25.111Z,21.60
2022-08-04T00:58:22.536Z,21.60
2022-08-04T01:00:56.413Z,21.50
2022-08-04T01:03:28.331Z,21.50
2022-08-04T01:06:08.006Z,21.50
2022-08-04T01:08:53.535Z,21.50
2022-08-04T01:11:33.593Z,21.40
2022-08-04T01:14:33.835Z,21.40
2022-08-04T01:17:08.347Z,21.40
2022-08-04T01:20:04.012Z,21.40
2022-08-04T01:23:29.174Z,21.40
2022-08-04T01:26:57.629Z,21.30
2022-08-04T01:29:29.310Z,21.30
2022-08-04T01:32:09.188Z,21.30
2022-08-04T01:34:37.923Z,21.30
2022-08-04T01:37:10.313Z,21.20
2022-08-04T01:39:42.804Z,21.20
2022-08-04T01:42:09.735Z,21.10
2022-08-04T01:44:37.175Z,21.10
2022-08-04T01:47:03.108Z,21.10
2022-08-04T01:49:40.210Z,21.00
2022-08-04T01:52:05.432Z,21.00
2022-08-04T01:54:30.860Z,21.00
2022-08-04T01:56:56.381Z,21.00
2022-08-04T01:59:21.844Z,20.90
2022-08-04T02:01:47.361Z,20.90
2022-08-04T02:04:21.359Z,20.90
2022-08-04T02:07:02.892Z,20.80
2022-08-04T02:09:35.416Z,20.80
2022-08-04T02:12:27.994Z,20.80
2022-08-04T02:14:59.988Z,20.70
2022-08-04T02:17:32.469Z,20.70
2022-08-04T02:20:10.623Z,20.70
2022-08-04T02:22:40.383Z,20.60
2022-08-04T02:25:09.561Z,20.60
2022-08-04T02:28:18.209Z,20.60
2022-08-04T02:30:53.335Z,20.60
2022-08-04T02:33:30.692Z,20.50
2022-08-04T02:36:02.418Z,20.40
2022-08-04T02:38:44.589Z,20.40
2022-08-04T02:41:11.400Z,20.40
2022-08-04T02:43:50.848Z,20.40
2022-08-04T02:46:19.840Z,20.30
2022-08-04T02:48:48.011Z,20.40
2022-08-04T02:51:15.022Z,20.30
2022-08-04T02:53:39.301Z,20.30
2022-08-04T02:56:04.257Z,20.30
2022-08-04T02:58:31.558Z,20.30
2022-08-04T03:00:55.337Z,20.20
2022-08-04T03:03:32.651Z,20.20
2022-08-04T03:06:48.799Z,20.20
2022-08-04T03:09:38.719Z,20.20
2022-08-04T03:12:29.353Z,20.20
2022-08-04T03:15:33.446Z,20.10
2022-08-04T03:18:32.763Z,20.10
2022-08-04T03:21:34.751Z,20.10
2022-08-04T03:24:53.780Z,20.10
2022-08-04T03:28:10.787Z,20.10
2022-08-04T03:30:57.973Z,20.10
2022-08-04T03:33:54.219Z,20.00
2022-08-04T03:36:48.463Z,20.00
2022-08-04T03:40:08.925Z,20.10
2022-08-04T03:43:05.264Z,20.00
2022-08-04T03:46:11.402Z,20.00
2022-08-04T03:49:37.107Z,20.00
2022-08-04T03:52:32.355Z,20.00
2022-08-04T03:55:44.007Z,20.00
2022-08-04T03:58:44.947Z,20.00
2022-08-04T04:01:27.079Z,19.90
2022-08-04T04:04:23.442Z,19.90
2022-08-04T04:07:27.196Z,19.80
2022-08-04T04:10:39.804Z,19.70
2022-08-04T04:13:50.448Z,19.60
2022-08-04T04:16:48.940Z,19.60
2022-08-04T04:19:34.213Z,19.60
2022-08-04T04:22:25.047Z,19.70
2022-08-04T04:25:10.063Z,19.70
2022-08-04T04:27:50.442Z,19.80
2022-08-04T04:30:20.701Z,19.80
2022-08-04T04:33:07.892Z,19.80
2022-08-04T04:35:40.117Z,19.80
2022-08-04T04:38:35.965Z,19.90
2022-08-04T04:41:34.091Z,19.90
2022-08-04T04:44:45.624Z,20.00
2022-08-04T04:47:43.094Z,20.00
2022-08-04T04:50:14.556Z,20.00
2022-08-04T04:52:43.551Z,20.10
2022-08-04T04:55:17.321Z,20.10
2022-08-04T04:57:53.853Z,20.10
2022-08-04T05:00:20.027Z,20.20
2022-08-04T05:03:17.534Z,20.20
2022-08-04T05:06:38.436Z,20.30
2022-08-04T05:09:17.163Z,20.30
2022-08-04T05:14:26.362Z,20.40
2022-08-04T05:15:12.233Z,20.50
2022-08-04T05:17:41.344Z,20.60
2022-08-04T05:20:10.418Z,20.70
2022-08-04T05:22:41.306Z,20.70
2022-08-04T05:25:15.910Z,20.80
2022-08-04T05:27:47.136Z,20.90
2022-08-04T05:30:14.271Z,21.00
2022-08-04T05:32:46.979Z,21.10
2022-08-04T05:35:47.858Z,21.10
2022-08-04T05:38:04.868Z,21.20
2022-08-04T05:40:28.740Z,21.40
2022-08-04T05:42:55.327Z,21.50
2022-08-04T05:45:21.969Z,21.60
2022-08-04T05:47:46.969Z,21.70
2022-08-04T05:50:11.122Z,21.80
2022-08-04T05:52:37.799Z,21.90
2022-08-04T05:55:03.187Z,22.10
2022-08-04T05:57:27.688Z,22.30
2022-08-04T05:59:53.766Z,22.60
2022-08-04T06:02:19.949Z,22.90
2022-08-04T06:04:46.891Z,23.30
2022-08-04T06:07:11.719Z,23.80
2022-08-04T06:09:35.900Z,24.30
2022-08-04T06:12:04.891Z,24.80
2022-08-04T06:14:34.580Z,25.30
2022-08-04T06:16:59.536Z,25.80
2022-08-04T06:20:02.379Z,26.40
2022-08-04T06:22:13.813Z,27.00
2022-08-04T06:24:39.234Z,27.50
2022-08-04T06:27:06.349Z,28.00
2022-08-04T06:29:36.256Z,28.60
2022-08-04T06:32:29.490Z,28.90
2022-08-04T06:34:49.079Z,29.40
2022-08-04T06:37:24.105Z,29.90
2022-08-04T06:39:58.136Z,30.40
2022-08-04T06:42:24.536Z,30.90
2022-08-04T06:44:52.505Z,31.10
2022-08-04T06:47:19.548Z,31.50
2022-08-04T06:51:23.329Z,32.00
2022-08-04T06:52:29.758Z,32.20
2022-08-04T06:54:55.745Z,32.50
2022-08-04T06:57:23.614Z,32.70
2022-08-04T06:59:52.197Z,32.90
2022-08-04T07:02:18.889Z,33.00
2022-08-04T07:04:43.150Z,33.20
2022-08-04T07:07:07.120Z,33.40
2022-08-04T07:09:33.039Z,33.50
2022-08-04T07:11:57.083Z,33.60
2022-08-04T07:14:21.653Z,33.50
2022-08-04T07:16:47.578Z,33.50
2022-08-04T07:19:14.732Z,33.40
2022-08-04T07:21:41.671Z,33.30
2022-08-04T07:24:33.104Z,33.10
2022-08-04T07:26:57.473Z,32.90
2022-08-04T07:29:21.258Z,32.60
2022-08-04T07:31:45.478Z,32.60
2022-08-04T07:34:11.518Z,32.60
2022-08-04T07:36:50.459Z,32.40
2022-08-04T07:39:26.402Z,32.30
2022-08-04T07:41:55.720Z,32.20
2022-08-04T07:44:19.972Z,32.00
2022-08-04T07:46:44.736Z,31.90
2022-08-04T07:49:09.215Z,31.70
2022-08-04T07:51:36.445Z,31.50
2022-08-04T07:54:03.443Z,31.40
2022-08-04T07:56:28.078Z,31.30
2022-08-04T07:58:53.299Z,31.30
2022-08-04T08:01:17.561Z,31.20
2022-08-04T08:03:42.769Z,31.10
2022-08-04T08:06:17.295Z,31.10
2022-08-04T08:08:50.864Z,31.00
2022-08-04T08:11:14.833Z,31.00
2022-08-04T08:13:39.229Z,30.90
2022-08-04T08:16:05.321Z,30.80
2022-08-04T08:18:29.136Z,30.70
2022-08-04T08:20:53.787Z,30.70
2022-08-04T08:23:17.649Z,30.80
2022-08-04T08:25:45.792Z,30.70
2022-08-04T08:28:09.865Z,30.60
2022-08-04T08:30:34.956Z,30.60
2022-08-04T08:33:06.409Z,30.60
2022-08-04T08:35:39.841Z,30.60
2022-08-04T08:38:24.428Z,30.70
2022-08-04T08:40:55.445Z,30.80
2022-08-04T08:44:05.824Z,30.80
2022-08-04T08:46:56.981Z,30.80
2022-08-04T08:50:02.680Z,30.90
2022-08-04T08:52:56.644Z,30.80
2022-08-04T08:55:41.300Z,30.90
2022-08-04T08:58:47.327Z,30.90
2022-08-04T09:01:27.588Z,30.90
2022-08-04T09:04:57.633Z,31.10
2022-08-04T09:07:50.972Z,31.10
2022-08-04T09:10:20.988Z,31.20
2022-08-04T09:12:54.319Z,31.20
2022-08-04T09:15:29.808Z,31.20
2022-08-04T09:18:01.102Z,31.30
2022-08-04T09:20:33.329Z,31.40
2022-08-04T09:23:14.868Z,31.50
2022-08-04T09:25:49.775Z,31.50
2022-08-04T09:28:52.459Z,31.60
2022-08-04T09:31:14.394Z,31.70
2022-08-04T09:33:49.884Z,31.80
2022-08-04T09:36:29.993Z,31.90
2022-08-04T09:39:09.719Z,31.90
2022-08-04T09:41:49.677Z,31.90
2022-08-04T09:44:51.334Z,32.00
2022-08-04T09:47:17.946Z,32.20
2022-08-04T09:49:51.780Z,32.30
2022-08-04T09:52:29.763Z,32.40
2022-08-04T09:55:07.067Z,32.50
2022-08-04T09:57:47.368Z,32.60
2022-08-04T10:00:16.857Z,32.70
2022-08-04T10:02:45.833Z,32.80
2022-08-04T10:05:16.389Z,33.00
2022-08-04T10:08:16.089Z,33.20
2022-08-04T10:10:53.678Z,33.40
2022-08-04T10:13:34.893Z,33.50
2022-08-04T10:16:13.405Z,33.60
2022-08-04T10:18:54.711Z,33.80
2022-08-04T10:21:26.952Z,34.00
2022-08-04T10:24:25.292Z,34.20
2022-08-04T10:26:58.477Z,34.60
2022-08-04T10:29:29.856Z,34.80
2022-08-04T10:32:02.203Z,35.10
2022-08-04T10:34:31.231Z,35.20
2022-08-04T10:37:03.806Z,35.40
2022-08-04T10:39:43.793Z,35.80
2022-08-04T10:42:18.297Z,35.90
2022-08-04T10:44:59.585Z,36.00
2022-08-04T10:47:28.676Z,36.30
2022-08-04T10:49:57.653Z,36.20
2022-08-04T10:52:33.858Z,36.20
2022-08-04T10:55:07.153Z,36.60
2022-08-04T10:57:39.120Z,36.90
2022-08-04T11:00:07.292Z,36.90
2022-08-04T11:02:41.548Z,37.10
2022-08-04T11:05:19.300Z,37.30
2022-08-04T11:07:47.341Z,37.40
2022-08-04T11:10:11.261Z,37.20
2022-08-04T11:12:37.275Z,37.10
2022-08-04T11:15:06.435Z,37.00
2022-08-04T11:17:36.214Z,37.00
2022-08-04T11:20:34.181Z,37.30
2022-08-04T11:23:05.652Z,37.30
2022-08-04T11:25:38.522Z,37.30
2022-08-04T11:28:13.267Z,37.50
2022-08-04T11:30:45.756Z,37.90
2022-08-04T11:33:23.612Z,38.30
2022-08-04T11:35:53.814Z,38.60
2022-08-04T11:38:27.967Z,38.50
2022-08-04T11:41:03.126Z,38.80
2022-08-04T11:44:00.933Z,38.80
2022-08-04T11:46:28.900Z,38.60
2022-08-04T11:49:03.438Z,38.60
2022-08-04T11:51:29.899Z,38.70
2022-08-04T11:53:53.653Z,38.40
2022-08-04T11:56:37.194Z,38.40
2022-08-04T11:59:05.250Z,38.60
2022-08-04T12:01:43.823Z,38.70
2022-08-04T12:04:15.628Z,38.30
2022-08-04T12:06:56.866Z,38.40
2022-08-04T12:09:36.222Z,38.10
2022-08-04T12:12:14.308Z,38.10
2022-08-04T12:14:50.752Z,37.90
2022-08-04T12:17:23.969Z,38.10
2022-08-04T12:20:05.200Z,38.10
2022-08-04T12:22:48.357Z,38.30
2022-08-04T12:25:19.553Z,38.30
2022-08-04T12:27:51.341Z,38.40
2022-08-04T12:31:00.427Z,38.60
2022-08-04T12:33:08.597Z,38.50
2022-08-04T12:35:40.655Z,38.40
2022-08-04T12:38:28.236Z,38.50
2022-08-04T12:40:56.981Z,38.80
2022-08-04T12:43:25.984Z,38.30
2022-08-04T12:45:56.835Z,38.70
2022-08-04T12:48:21.767Z,38.70
2022-08-04T12:50:49.715Z,38.90
2022-08-04T12:53:19.538Z,38.70
2022-08-04T12:56:01.389Z,38.70
2022-08-04T12:58:42.000Z,38.40
2022-08-04T13:02:09.699Z,38.70
2022-08-04T13:04:02.222Z,38.80
2022-08-04T13:06:28.977Z,38.70
2022-08-04T13:08:53.189Z,39.00
2022-08-04T13:11:19.137Z,39.10
2022-08-04T13:13:45.771Z,38.90
2022-08-04T13:16:14.331Z,39.00
2022-08-04T13:18:42.819Z,38.90
2022-08-04T13:21:20.570Z,38.80
2022-08-04T13:24:19.627Z,38.90
2022-08-04T13:26:42.376Z,39.10
2022-08-04T13:29:17.025Z,39.10
2022-08-04T13:31:52.954Z,38.90
2022-08-04T13:34:19.347Z,39.10
2022-08-04T13:36:44.953Z,39.00
2022-08-04T13:39:17.451Z,39.00
2022-08-04T13:41:56.971Z,39.00
2022-08-04T13:44:27.844Z,38.80
2022-08-04T13:46:57.940Z,38.50
2022-08-04T13:49:42.766Z,38.40
2022-08-04T13:52:11.060Z,38.10
2022-08-04T13:54:42.454Z,37.90
2022-08-04T13:57:14.150Z,38.20
2022-08-04T13:59:40.119Z,38.60
2022-08-04T14:02:11.348Z,38.50
2022-08-04T14:04:42.272Z,38.70
2022-08-04T14:07:17.746Z,38.90
2022-08-04T14:10:03.442Z,39.00
2022-08-04T14:12:45.699Z,38.70
2022-08-04T14:16:01.206Z,38.80
2022-08-04T14:18:22.570Z,38.30
2022-08-04T14:21:09.495Z,38.40
2022-08-04T14:23:47.735Z,38.80
2022-08-04T14:26:31.449Z,38.80
2022-08-04T14:29:28.463Z,38.80
2022-08-04T14:31:57.776Z,38.90
2022-08-04T14:34:30.054Z,39.00
2022-08-04T14:37:16.981Z,39.00
2022-08-04T14:39:40.496Z,38.90
2022-08-04T14:42:04.773Z,39.10
2022-08-04T14:44:28.704Z,38.90
2022-08-04T14:46:54.481Z,38.80
2022-08-04T14:49:18.251Z,39.00
2022-08-04T14:51:45.452Z,38.70
2022-08-04T14:54:15.806Z,38.70
2022-08-04T14:56:47.200Z,38.60
2022-08-04T14:59:12.912Z,38.90
2022-08-04T15:01:37.843Z,39.00
2022-08-04T15:04:04.580Z,38.40
2022-08-04T15:06:30.537Z,38.30
2022-08-04T15:08:58.578Z,38.20
2022-08-04T15:11:24.391Z,37.80
2022-08-04T15:13:48.525Z,37.90
2022-08-04T15:16:13.971Z,37.70
2022-08-04T15:18:39.388Z,37.60
2022-08-04T15:21:04.126Z,37.30
2022-08-04T15:23:38.428Z,37.30
2022-08-04T15:26:07.994Z,37.20
2022-08-04T15:28:34.663Z,37.10
2022-08-04T15:30:59.319Z,36.90
2022-08-04T15:33:33.566Z,36.80
2022-08-04T15:36:14.445Z,36.70
2022-08-04T15:38:43.722Z,36.70
2022-08-04T15:41:15.089Z,36.50
2022-08-04T15:44:00.364Z,36.40
2022-08-04T15:47:11.548Z,36.30
2022-08-04T15:49:35.420Z,36.10
2022-08-04T15:52:01.890Z,35.80
2022-08-04T15:54:27.833Z,35.90
2022-08-04T15:57:01.976Z,35.90
2022-08-04T16:00:08.742Z,35.80
2022-08-04T16:02:45.503Z,35.70
2022-08-04T16:05:43.371Z,35.80
2022-08-04T16:08:18.132Z,35.60
2022-08-04T16:10:44.778Z,35.60
2022-08-04T16:13:13.931Z,35.50
2022-08-04T16:15:46.924Z,35.50
2022-08-04T16:18:25.657Z,35.50
2022-08-04T16:20:52.041Z,35.40
2022-08-04T16:23:59.247Z,35.30
2022-08-04T16:26:54.694Z,35.20
2022-08-04T16:29:46.884Z,35.20
2022-08-04T16:32:17.085Z,35.10
2022-08-04T16:34:54.746Z,35.10
2022-08-04T16:37:21.078Z,35.00
2022-08-04T16:39:50.019Z,35.00
2022-08-04T16:42:36.296Z,34.90
2022-08-04T16:45:13.810Z,34.90
2022-08-04T16:48:04.299Z,34.90
2022-08-04T16:50:28.228Z,34.80
2022-08-04T16:52:54.000Z,34.80
2022-08-04T16:55:19.857Z,34.80
2022-08-04T16:57:47.524Z,34.70
2022-08-04T17:00:13.920Z,34.70
2022-08-04T17:02:38.202Z,34.60
2022-08-04T17:05:07.498Z,34.60
2022-08-04T17:08:07.253Z,34.60
2022-08-04T17:10:39.969Z,34.60
2022-08-04T17:14:03.414Z,34.50
2022-08-04T17:16:13.650Z,34.50
2022-08-04T17:18:45.280Z,34.40
2022-08-04T17:21:11.618Z,34.30
2022-08-04T17:24:13.041Z,34.30
2022-08-04T17:26:39.837Z,34.20
2022-08-04T17:29:05.584Z,34.20
2022-08-04T17:31:36.853Z,34.10
2022-08-04T17:34:04.003Z,34.00
2022-08-04T17:36:33.607Z,34.00
2022-08-04T17:39:01.197Z,34.00
2022-08-04T17:41:30.114Z,33.90
2022-08-04T17:44:04.720Z,33.80
2022-08-04T17:46:41.144Z,33.80
2022-08-04T17:49:11.099Z,33.70
2022-08-04T17:52:05.606Z,33.50
2022-08-04T17:54:36.678Z,33.50
2022-08-04T17:57:10.708Z,33.40
2022-08-04T17:59:52.058Z,33.20
2022-08-04T18:02:33.348Z,33.10
2022-08-04T18:05:08.026Z,33.00
2022-08-04T18:08:35.606Z,32.90
2022-08-04T18:10:27.626Z,32.80
2022-08-04T18:12:54.587Z,32.60
2022-08-04T18:15:25.612Z,32.50
2022-08-04T18:18:23.349Z,32.40
2022-08-04T18:20:50.034Z,32.30
2022-08-04T18:23:16.786Z,32.20
2022-08-04T18:25:51.403Z,32.10
2022-08-04T18:28:20.771Z,31.90
2022-08-04T18:30:55.657Z,31.80
2022-08-04T18:33:41.032Z,31.60
2022-08-04T18:36:33.571Z,31.50
2022-08-04T18:38:55.538Z,31.40
2022-08-04T18:41:19.959Z,31.20
2022-08-04T18:43:43.708Z,31.10
2022-08-04T18:46:19.807Z,31.00
2022-08-04T18:48:52.477Z,30.90
2022-08-04T18:51:23.838Z,30.80
2022-08-04T18:53:55.194Z,30.70
2022-08-04T18:59:10.220Z,30.40
2022-08-04T19:02:16.047Z,30.30
2022-08-04T19:04:32.967Z,30.20
2022-08-04T19:07:23.434Z,30.00
2022-08-04T19:09:52.104Z,29.90
2022-08-04T19:12:17.529Z,29.80
2022-08-04T19:14:57.791Z,29.70
2022-08-04T19:17:52.510Z,29.60
2022-08-04T19:20:16.130Z,29.50
2022-08-04T19:24:28.648Z,29.30
2022-08-04T19:26:02.479Z,29.20
2022-08-04T19:28:17.369Z,29.20
2022-08-04T19:30:41.449Z,29.00
2022-08-04T19:33:05.902Z,28.90
2022-08-04T19:35:31.592Z,28.80
2022-08-04T19:38:11.029Z,28.70
2022-08-04T19:40:42.140Z,28.60
2022-08-04T19:43:16.484Z,28.50
2022-08-04T19:45:44.841Z,28.40
2022-08-04T19:48:22.048Z,28.30
2022-08-04T19:50:48.309Z,28.20
2022-08-04T19:53:19.368Z,28.10
2022-08-04T19:55:43.800Z,28.10
2022-08-04T19:58:13.926Z,28.00
2022-08-04T20:00:39.420Z,27.90
2022-08-04T20:03:03.535Z,27.80
2022-08-04T20:05:54.489Z,27.70
2022-08-04T20:08:18.636Z,27.70
2022-08-04T20:10:47.028Z,27.60
2022-08-04T20:13:15.872Z,27.50
2022-08-04T20:15:39.605Z,27.40
2022-08-04T20:18:35.926Z,27.40
2022-08-04T20:21:00.659Z,27.30
2022-08-04T20:23:47.706Z,27.20
2022-08-04T20:26:09.611Z,27.10
2022-08-04T20:28:36.818Z,27.10
2022-08-04T20:31:00.646Z,27.00
2022-08-04T20:33:24.325Z,27.00
2022-08-04T20:36:05.022Z,26.90
2022-08-04T20:38:33.778Z,26.80
2022-08-04T20:40:58.985Z,26.80
2022-08-04T20:43:25.037Z,26.80
2022-08-04T20:45:57.010Z,26.60
2022-08-04T20:48:23.173Z,26.60
2022-08-04T20:50:49.826Z,26.50
2022-08-04T20:53:16.822Z,26.50
2022-08-04T20:55:55.728Z,26.50
2022-08-04T20:58:19.944Z,26.40
2022-08-04T21:00:53.292Z,26.40
2022-08-04T21:03:17.104Z,26.30
2022-08-04T21:05:40.866Z,26.40
2022-08-04T21:08:05.425Z,26.40
2022-08-04T21:10:31.108Z,26.40
2022-08-04T21:12:56.621Z,26.30
2022-08-04T21:15:25.140Z,26.40
2022-08-04T21:17:58.776Z,26.30
2022-08-04T21:20:28.032Z,26.30
2022-08-04T21:22:52.148Z,26.30
2022-08-04T21:25:16.612Z,26.30
2022-08-04T21:27:44.911Z,26.30
2022-08-04T21:30:25.390Z,26.30
2022-08-04T21:32:50.077Z,26.20
2022-08-04T21:35:16.151Z,26.20
2022-08-04T21:37:58.083Z,26.20
2022-08-04T21:40:30.706Z,26.10
2022-08-04T21:43:00.600Z,26.20
2022-08-04T21:45:35.981Z,26.10
2022-08-04T21:48:00.434Z,26.00
2022-08-04T21:50:25.032Z,26.00
2022-08-04T21:52:54.448Z,26.00
2022-08-04T21:55:19.470Z,25.90
2022-08-04T21:57:43.355Z,25.90
2022-08-04T22:00:18.620Z,25.90
2022-08-04T22:02:44.985Z,25.90
2022-08-04T22:05:09.312Z,25.80
2022-08-04T22:07:50.204Z,25.70
2022-08-04T22:10:15.369Z,25.70
2022-08-04T22:12:46.383Z,25.60
2022-08-04T22:15:22.758Z,25.60
2022-08-04T22:18:00.839Z,25.60
2022-08-04T22:20:28.407Z,25.50
2022-08-04T22:22:54.190Z,25.30
2022-08-04T22:25:19.994Z,25.30
2022-08-04T22:28:03.694Z,25.40
2022-08-04T22:30:32.911Z,25.30
2022-08-04T22:32:57.212Z,25.30
2022-08-04T22:35:36.189Z,25.20
2022-08-04T22:38:20.631Z,25.20
2022-08-04T22:40:51.007Z,25.10
2022-08-04T22:43:32.779Z,24.90
2022-08-04T22:45:58.075Z,25.00
2022-08-04T22:48:22.312Z,25.00
2022-08-04T22:50:47.796Z,24.90
2022-08-04T22:53:11.570Z,24.80
2022-08-04T22:56:06.930Z,24.80
2022-08-04T22:58:28.606Z,24.70
2022-08-04T23:00:54.030Z,24.70
2022-08-04T23:03:37.562Z,24.70
2022-08-04T23:06:10.835Z,24.60
2022-08-04T23:08:36.398Z,24.60
2022-08-04T23:11:00.200Z,24.40
2022-08-04T23:13:24.705Z,24.40
2022-08-04T23:15:48.471Z,24.30
2022-08-04T23:18:12.265Z,24.30
2022-08-04T23:20:39.291Z,24.30
2022-08-04T23:23:15.085Z,24.20
2022-08-04T23:26:08.596Z,24.20
2022-08-04T23:28:22.825Z,24.20
2022-08-04T23:30:48.787Z,24.20
2022-08-04T23:33:12.565Z,24.10
2022-08-04T23:35:39.153Z,24.10
2022-08-04T23:38:30.953Z,24.10
2022-08-04T23:40:50.525Z,24.00
2022-08-04T23:43:17.906Z,23.90
2022-08-04T23:46:07.663Z,23.90
2022-08-04T23:48:25.818Z,23.90
2022-08-04T23:50:50.072Z,23.90
2022-08-04T23:53:18.595Z,23.90
2022-08-04T23:55:46.344Z,23.80
2022-08-04T23:58:18.560Z,23.70
